Dundee, MI (48131)

2:08 PM EDT on August 24, 2016 (GMT -0400)
Near Dundee Middle School | | Change Station

Elev 666 ft 41.96 °N, 83.65 °W | Updated 28 seconds ago

Mostly Cloudy
Mostly Cloudy
81.1 °F
Feels Like 84 °F
N
5.8
Wind Variable Wind from South
Gusts 7.4 mph

Today
High -- | Low -- °F
--% Chance of Precip.
Yesterday
High -- | Low -- °F
Precip. -- in
Pressure 30.06 in
Visibility 10.0 miles
Clouds Mostly Cloudy 3300 ft
Heat Index 84 °F
Dew Point 68 °F
Humidity 64%
Rainfall 0.00 in
Snow Depth Not available.
6:52 AM 8:20 PM
Waning Gibbous, 55% visible
METAR KTTF 241754Z AUTO 21011G18KT 140V220 10SM BKN033 27/21 A3006 RMK AO2 T02730214 10290 20195
Pressure 30.06 in
Visibility 10.0 miles
Clouds Mostly Cloudy 3300 ft
Heat Index 84 °F
Dew Point 68 °F
Humidity 64%
Rainfall 0.00 in
Snow Depth Not available.
6:52 AM 8:20 PM
Waning Gibbous, 55% visible
METAR KTTF 241754Z AUTO 21011G18KT 140V220 10SM BKN033 27/21 A3006 RMK AO2 T02730214 10290 20195

10-Day Weather Forecast

Almanac

Astronomy

Aug. 24, 2016 Rise Set
Actual Time
Civil Twilight
Nautical Twilight
Astronomical Twilight
Moon
Length of Visible Light
Length of Day
Tomorrow will be .
, % of the Moon is Illuminated

Today's Extremes

State Highs State Lows

Community

WunderPhotos

Upload Photos

1,934,662 photos uploaded!

WunderBlog® & News

Nearby

Air Quality

  Air Quality AQ Index Pollutant
Not available.

Snow Depth

Station Depth Elevation

Earthquake Activity

City Distance Mag. Time & Date
Minimum magnitude displayed is 2.5.

Coastal Water Temperatures

Place Temperature

Stations

Nearby Weather Stations

Station Location Temp. Windchill Dew Point Humidity Wind Precip. Elev Updated Type
                   

Watches & Warnings

There are currently no watches in effect.